createdAt,value
2022-12-08T00:02:03.604Z,100766.06
2022-12-08T00:04:52.486Z,100761.91
2022-12-08T00:07:39.532Z,100759.44
2022-12-08T00:10:32.295Z,100757.31
2022-12-08T00:12:57.810Z,100760.28
2022-12-08T00:15:26.978Z,100759.69
2022-12-08T00:17:55.328Z,100759.91
2022-12-08T00:20:23.578Z,100757.44
2022-12-08T00:22:53.262Z,100760.00
2022-12-08T00:25:21.549Z,100771.38
2022-12-08T00:27:49.862Z,100755.09
2022-12-08T00:30:18.408Z,100759.59
2022-12-08T00:32:46.669Z,100760.06
2022-12-08T00:35:15.046Z,100721.38
2022-12-08T00:37:43.349Z,100743.41
2022-12-08T00:40:13.314Z,100743.31
2022-12-08T00:42:41.572Z,100747.28
2022-12-08T00:45:10.433Z,100751.75
2022-12-08T00:47:38.704Z,100750.84
2022-12-08T00:50:08.462Z,100738.69
2022-12-08T00:52:37.197Z,100734.44
2022-12-08T00:55:06.381Z,100735.13
2022-12-08T00:57:36.699Z,100737.00
2022-12-08T01:00:06.039Z,100729.03
2022-12-08T01:02:36.259Z,100721.13
2022-12-08T01:05:04.815Z,100722.38
2022-12-08T01:07:33.073Z,100722.53
2022-12-08T01:10:01.540Z,100717.44
2022-12-08T01:12:30.525Z,100710.50
2022-12-08T01:15:02.507Z,100715.06
2022-12-08T01:17:31.289Z,100722.50
2022-12-08T01:20:02.331Z,100714.22
2022-12-08T01:22:31.045Z,100709.19
2022-12-08T01:24:59.252Z,100712.16
2022-12-08T01:27:27.506Z,100719.97
2022-12-08T01:29:56.714Z,100717.19
2022-12-08T01:32:26.475Z,100721.31
2022-12-08T01:34:54.822Z,100715.16
2022-12-08T01:37:23.092Z,100717.84
2022-12-08T01:39:51.439Z,100711.81
2022-12-08T01:42:24.145Z,100704.28
2022-12-08T01:44:59.547Z,100714.09
2022-12-08T01:47:35.923Z,100722.75
2022-12-08T01:50:05.718Z,100733.41
2022-12-08T01:52:38.286Z,100732.94
2022-12-08T01:55:12.282Z,100733.28
2022-12-08T01:57:44.715Z,100732.69
2022-12-08T02:00:17.390Z,100736.41
2022-12-08T02:02:54.489Z,100736.78
2022-12-08T02:05:26.986Z,100735.63
2022-12-08T02:07:56.930Z,100729.38
2022-12-08T02:10:29.580Z,100734.31
2022-12-08T02:13:00.177Z,100746.75
2022-12-08T02:15:37.412Z,100740.59
2022-12-08T02:18:23.256Z,100731.00
2022-12-08T02:20:58.044Z,100734.63
2022-12-08T02:23:35.404Z,100717.25
2022-12-08T02:26:36.676Z,100718.25
2022-12-08T02:29:39.705Z,100727.03
2022-12-08T02:32:31.817Z,100714.00
2022-12-08T02:35:09.802Z,100718.38
2022-12-08T02:37:42.287Z,100712.13
2022-12-08T02:40:18.616Z,100677.00
2022-12-08T02:42:50.158Z,100705.88
2022-12-08T02:45:23.703Z,100691.19
2022-12-08T02:47:53.698Z,100704.88
2022-12-08T02:50:23.450Z,100698.69
2022-12-08T02:52:52.087Z,100692.38
2022-12-08T02:55:26.353Z,100690.53
2022-12-08T02:58:18.677Z,100696.78
2022-12-08T03:01:01.770Z,100698.69
2022-12-08T03:03:37.061Z,100695.22
2022-12-08T03:06:17.049Z,100692.91
2022-12-08T03:08:52.887Z,100693.47
2022-12-08T03:11:26.260Z,100655.22
2022-12-08T03:13:59.173Z,100688.34
2022-12-08T03:16:29.881Z,100683.25
2022-12-08T03:19:01.890Z,100681.47
2022-12-08T03:21:34.739Z,100677.06
2022-12-08T03:24:05.945Z,100677.16
2022-12-08T03:26:42.608Z,100677.28
2022-12-08T03:29:11.547Z,100667.78
2022-12-08T03:31:44.065Z,100667.56
2022-12-08T03:34:14.962Z,100654.53
2022-12-08T03:36:45.530Z,100653.59
2022-12-08T03:39:13.856Z,100659.69
2022-12-08T03:41:42.205Z,100658.06
2022-12-08T03:44:10.537Z,100642.03
2022-12-08T03:46:38.875Z,100658.91
2022-12-08T03:49:07.156Z,100650.19
2022-12-08T03:51:35.404Z,100634.16
2022-12-08T03:54:05.628Z,100648.63
2022-12-08T03:56:35.944Z,100609.94
2022-12-08T03:59:04.822Z,100649.72
2022-12-08T04:01:33.132Z,100663.41
2022-12-08T04:04:01.481Z,100647.88
2022-12-08T04:06:29.882Z,100643.19
2022-12-08T04:08:58.238Z,100642.34
2022-12-08T04:11:27.931Z,100642.97
2022-12-08T04:13:56.190Z,100628.94
2022-12-08T04:16:26.820Z,100630.78
2022-12-08T04:18:55.367Z,100628.50
2022-12-08T04:21:23.639Z,100631.00
2022-12-08T04:23:54.940Z,100632.78
2022-12-08T04:26:29.137Z,100629.47
2022-12-08T04:28:57.521Z,100631.13
2022-12-08T04:31:25.946Z,100624.31
2022-12-08T04:33:54.290Z,100626.00
2022-12-08T04:36:22.634Z,100625.31
2022-12-08T04:38:50.856Z,100614.97
2022-12-08T04:41:19.156Z,100624.81
2022-12-08T04:43:49.781Z,100624.91
2022-12-08T04:46:18.179Z,100613.63
2022-12-08T04:48:47.964Z,100619.84
2022-12-08T04:51:17.982Z,100617.81
2022-12-08T04:53:47.233Z,100623.00
2022-12-08T04:56:17.099Z,100625.63
2022-12-08T04:58:45.506Z,100637.03
2022-12-08T05:01:17.220Z,100631.78
2022-12-08T05:03:45.510Z,100626.00
2022-12-08T05:06:15.319Z,100615.66
2022-12-08T05:08:44.579Z,100610.28
2022-12-08T05:11:13.859Z,100610.75
2022-12-08T05:13:42.075Z,100631.09
2022-12-08T05:16:12.944Z,100617.78
2022-12-08T05:18:43.276Z,100613.91
2022-12-08T05:21:12.427Z,100608.53
2022-12-08T05:23:40.752Z,100603.28
2022-12-08T05:26:09.045Z,100600.72
2022-12-08T05:28:42.263Z,100609.50
2022-12-08T05:31:11.228Z,100602.84
2022-12-08T05:33:39.619Z,100595.75
2022-12-08T05:36:10.334Z,100603.38
2022-12-08T05:38:39.803Z,100612.19
2022-12-08T05:41:08.363Z,100609.00
2022-12-08T05:43:37.262Z,100595.88
2022-12-08T05:46:05.842Z,100601.63
2022-12-08T05:48:34.275Z,100604.38
2022-12-08T05:51:02.755Z,100598.44
2022-12-08T05:53:32.433Z,100595.19
2022-12-08T05:56:00.767Z,100584.84
2022-12-08T05:58:30.037Z,100582.38
2022-12-08T06:00:58.301Z,100570.63
2022-12-08T06:03:26.662Z,100577.66
2022-12-08T06:05:54.959Z,100571.50
2022-12-08T06:08:23.285Z,100572.88
2022-12-08T06:10:52.892Z,100578.03
2022-12-08T06:13:21.251Z,100573.44
2022-12-08T06:15:49.548Z,100574.13
2022-12-08T06:18:17.853Z,100582.91
2022-12-08T06:20:46.180Z,100577.03
2022-12-08T06:23:14.496Z,100564.06
2022-12-08T06:25:42.795Z,100566.47
2022-12-08T06:28:12.491Z,100566.41
2022-12-08T06:30:40.736Z,100575.91
2022-12-08T06:33:08.979Z,100575.06
2022-12-08T06:35:38.249Z,100570.72
2022-12-08T06:38:06.571Z,100575.91
2022-12-08T06:40:34.823Z,100567.41
2022-12-08T06:43:03.102Z,100569.56
2022-12-08T06:45:32.915Z,100568.66
2022-12-08T06:48:03.258Z,100563.41
2022-12-08T06:50:32.693Z,100553.44
2022-12-08T06:53:05.118Z,100559.16
2022-12-08T06:58:22.745Z,100553.13
2022-12-08T07:00:52.399Z,100547.03
2022-12-08T07:03:20.742Z,100551.75
2022-12-08T07:05:49.059Z,100544.09
2022-12-08T07:08:17.530Z,100546.72
2022-12-08T07:10:45.887Z,100553.28
2022-12-08T07:13:14.129Z,100563.41
2022-12-08T07:15:42.446Z,100570.50
2022-12-08T07:18:12.138Z,100571.13
2022-12-08T07:20:40.491Z,100571.06
2022-12-08T07:23:08.819Z,100571.00
2022-12-08T07:25:37.114Z,100570.75
2022-12-08T07:28:10.331Z,100559.00
2022-12-08T07:30:38.919Z,100569.06
2022-12-08T07:33:07.269Z,100581.88
2022-12-08T07:35:36.883Z,100576.22
2022-12-08T07:38:05.174Z,100579.53
2022-12-08T07:40:33.425Z,100579.38
2022-12-08T07:43:01.672Z,100588.50
2022-12-08T07:45:31.821Z,100583.84
2022-12-08T07:48:00.447Z,100589.63
2022-12-08T07:50:28.769Z,100581.44
2022-12-08T07:52:58.451Z,100583.81
2022-12-08T07:55:28.771Z,100587.13
2022-12-08T07:57:57.037Z,100587.81
2022-12-08T08:00:25.385Z,100584.13
2022-12-08T08:02:53.834Z,100587.47
2022-12-08T08:05:23.355Z,100578.16
2022-12-08T08:07:51.674Z,100583.91
2022-12-08T08:10:21.375Z,100574.09
2022-12-08T08:12:49.620Z,100580.50
2022-12-08T08:15:19.352Z,100581.88
2022-12-08T08:17:50.985Z,100578.81
2022-12-08T08:20:20.817Z,100568.13
2022-12-08T08:22:51.316Z,100573.13
2022-12-08T08:25:23.253Z,100569.66
2022-12-08T08:27:52.314Z,100572.63
2022-12-08T08:30:21.300Z,100564.97
2022-12-08T08:32:50.820Z,100569.97
2022-12-08T08:35:19.148Z,100560.91
2022-12-08T08:37:49.390Z,100564.66
2022-12-08T08:40:18.837Z,100551.00
2022-12-08T08:42:48.502Z,100543.78
2022-12-08T08:45:16.849Z,100538.50
2022-12-08T08:47:46.156Z,100532.16
2022-12-08T08:50:14.585Z,100506.44
2022-12-08T08:52:42.853Z,100535.59
2022-12-08T08:55:11.330Z,100538.81
2022-12-08T08:57:39.517Z,100537.53
2022-12-08T09:00:10.821Z,100529.78
2022-12-08T09:02:40.440Z,100528.38
2022-12-08T09:05:09.441Z,100510.53
2022-12-08T09:07:37.950Z,100503.22
2022-12-08T09:10:07.886Z,100496.84
2022-12-08T09:12:36.556Z,100506.66
2022-12-08T09:15:05.374Z,100504.94
2022-12-08T09:17:35.368Z,100511.19
2022-12-08T09:20:04.102Z,100518.31
2022-12-08T09:22:32.739Z,100512.28
2022-12-08T09:25:01.068Z,100512.34
2022-12-08T09:27:29.346Z,100519.31
2022-12-08T09:29:57.601Z,100500.47
2022-12-08T09:32:25.802Z,100516.59
2022-12-08T09:34:55.505Z,100509.75
2022-12-08T09:37:23.782Z,100514.53
2022-12-08T09:39:53.473Z,100522.81
2022-12-08T09:42:35.619Z,100517.69
2022-12-08T09:45:11.044Z,100519.69
2022-12-08T09:47:42.539Z,100521.38
2022-12-08T09:50:19.636Z,100531.63
2022-12-08T09:52:57.721Z,100533.44
2022-12-08T09:55:41.662Z,100537.13
2022-12-08T09:58:20.910Z,100531.53
2022-12-08T10:00:49.861Z,100530.59
2022-12-08T10:03:18.843Z,100518.44
2022-12-08T10:05:57.295Z,100526.91
2022-12-08T10:08:33.500Z,100522.66
2022-12-08T10:11:08.552Z,100520.25
2022-12-08T10:13:43.611Z,100517.09
2022-12-08T10:16:29.478Z,100512.97
2022-12-08T10:19:12.291Z,100508.31
2022-12-08T10:21:42.563Z,100510.13
2022-12-08T10:24:23.562Z,100513.50
2022-12-08T10:26:51.976Z,100514.44
2022-12-08T10:29:20.228Z,100505.47
2022-12-08T10:31:49.362Z,100498.91
2022-12-08T10:34:20.479Z,100501.34
2022-12-08T10:36:53.279Z,100494.06
2022-12-08T10:39:39.763Z,100483.16
2022-12-08T10:42:18.069Z,100488.09
2022-12-08T10:44:59.323Z,100473.84
2022-12-08T10:47:29.798Z,100456.16
2022-12-08T10:50:20.534Z,100447.19
2022-12-08T10:52:56.901Z,100443.38
2022-12-08T10:55:26.054Z,100433.41
2022-12-08T10:57:54.402Z,100423.69
2022-12-08T11:00:25.271Z,100416.28
2022-12-08T11:02:59.923Z,100419.66
2022-12-08T11:05:33.328Z,100409.91
2022-12-08T11:08:04.110Z,100411.50
2022-12-08T11:10:36.688Z,100416.44
2022-12-08T11:13:07.571Z,100369.78
2022-12-08T11:15:41.575Z,100416.84
2022-12-08T11:18:23.044Z,100410.47
2022-12-08T11:21:02.185Z,100403.16
2022-12-08T11:23:32.094Z,100403.78
2022-12-08T11:26:08.583Z,100398.91
2022-12-08T11:28:37.941Z,100391.56
2022-12-08T11:31:17.681Z,100387.84
2022-12-08T11:33:48.574Z,100388.56
2022-12-08T11:36:17.457Z,100390.78
2022-12-08T11:38:51.248Z,100385.13
2022-12-08T11:41:23.232Z,100369.88
2022-12-08T11:43:56.967Z,100358.69
2022-12-08T11:46:29.830Z,100376.03
2022-12-08T11:49:06.820Z,100369.53
2022-12-08T11:51:38.848Z,100362.19
2022-12-08T11:54:20.435Z,100356.66
2022-12-08T11:56:51.383Z,100356.53
2022-12-08T11:59:27.673Z,100340.66
2022-12-08T12:01:56.529Z,100342.84
2022-12-08T12:04:32.932Z,100313.22
2022-12-08T12:07:41.316Z,100330.09
2022-12-08T12:10:44.616Z,100315.28
2022-12-08T12:13:37.521Z,100321.94
2022-12-08T12:16:32.468Z,100319.06
2022-12-08T12:19:04.248Z,100314.38
2022-12-08T12:21:42.981Z,100247.03
2022-12-08T12:24:26.097Z,100287.13
2022-12-08T12:27:13.634Z,100303.16
2022-12-08T12:29:55.499Z,100300.00
2022-12-08T12:32:30.053Z,100312.44
2022-12-08T12:35:13.235Z,100284.38
2022-12-08T12:37:46.024Z,100303.53
2022-12-08T12:40:22.229Z,100291.13
2022-12-08T12:43:17.900Z,100291.25
2022-12-08T12:45:50.716Z,100289.44
2022-12-08T12:48:27.523Z,100245.75
2022-12-08T12:51:04.258Z,100283.81
2022-12-08T12:54:01.464Z,100280.94
2022-12-08T12:56:56.965Z,100289.84
2022-12-08T13:02:39.983Z,100267.81
2022-12-08T13:05:21.327Z,100265.13
2022-12-08T13:08:02.789Z,100264.88
2022-12-08T13:10:38.789Z,100251.53
2022-12-08T13:13:32.952Z,100251.28
2022-12-08T13:16:19.115Z,100170.03
2022-12-08T13:18:50.648Z,100244.28
2022-12-08T13:21:22.449Z,100239.47
2022-12-08T13:23:52.823Z,100212.25
2022-12-08T13:26:23.842Z,100237.31
2022-12-08T13:29:20.473Z,100238.88
2022-12-08T13:31:52.333Z,100226.69
2022-12-08T13:34:26.650Z,100199.50
2022-12-08T13:37:04.012Z,100192.84
2022-12-08T13:39:42.136Z,100216.78
2022-12-08T13:42:25.012Z,100211.34
2022-12-08T13:54:56.058Z,100187.63
2022-12-08T13:57:10.168Z,100184.00
2022-12-08T13:59:35.777Z,100173.13
2022-12-08T14:02:13.443Z,100172.91
2022-12-08T14:05:16.924Z,100174.31
2022-12-08T14:07:36.565Z,100164.56
2022-12-08T14:10:08.659Z,100164.44
2022-12-08T14:12:38.026Z,100167.22
2022-12-08T14:15:08.371Z,100154.81
2022-12-08T14:17:37.023Z,100159.00
2022-12-08T14:20:20.998Z,100152.63
2022-12-08T14:22:50.487Z,100146.22
2022-12-08T14:25:19.752Z,100142.59
2022-12-08T14:27:49.152Z,100147.06
2022-12-08T14:30:21.987Z,100154.88
2022-12-08T14:32:52.031Z,100159.91
2022-12-08T14:35:25.123Z,100152.66
2022-12-08T14:37:57.152Z,100151.81
2022-12-08T14:40:29.297Z,100149.19
2022-12-08T14:43:15.087Z,100142.06
2022-12-08T14:45:53.430Z,100134.22
2022-12-08T14:48:26.913Z,100139.78
2022-12-08T14:51:28.020Z,100134.66
2022-12-08T14:53:59.870Z,100125.84
2022-12-08T14:56:34.003Z,100131.84
2022-12-08T14:59:11.870Z,100131.72
2022-12-08T15:01:40.372Z,100136.16
2022-12-08T15:04:16.160Z,100133.41
2022-12-08T15:06:52.732Z,100118.28
2022-12-08T15:09:32.327Z,100134.22
2022-12-08T15:12:04.794Z,100127.97
2022-12-08T15:14:35.456Z,100071.53
2022-12-08T15:17:04.746Z,100119.75
2022-12-08T15:19:35.368Z,100130.81
2022-12-08T15:22:22.827Z,100128.03
2022-12-08T15:24:51.200Z,100123.13
2022-12-08T15:27:20.768Z,100129.13
2022-12-08T15:29:49.456Z,100134.19
2022-12-08T15:32:20.378Z,100130.56
2022-12-08T15:34:48.791Z,100125.53
2022-12-08T15:37:24.141Z,100115.63
2022-12-08T15:39:53.083Z,100095.56
2022-12-08T15:42:21.458Z,100109.66
2022-12-08T15:44:49.924Z,100110.44
2022-12-08T15:47:20.969Z,100100.59
2022-12-08T15:49:50.597Z,100109.28
2022-12-08T15:52:23.745Z,100083.59
2022-12-08T15:54:52.325Z,100113.66
2022-12-08T16:09:13.097Z,100105.97
2022-12-08T16:12:07.067Z,100106.59
2022-12-08T16:17:25.616Z,100048.53
2022-12-08T16:19:54.179Z,100074.19
2022-12-08T16:25:18.921Z,100081.78
2022-12-08T16:30:39.456Z,100080.56
2022-12-08T16:33:07.863Z,100085.25
2022-12-08T16:35:36.287Z,100069.63
2022-12-08T16:38:05.099Z,100053.91
2022-12-08T16:40:56.914Z,100062.56
2022-12-08T16:43:24.222Z,100068.09
2022-12-08T16:45:52.823Z,100052.72
2022-12-08T16:48:22.605Z,100051.63
2022-12-08T16:50:50.909Z,100048.38
2022-12-08T16:53:19.190Z,100050.06
2022-12-08T16:55:50.471Z,100045.63
2022-12-08T16:58:20.020Z,100047.41
2022-12-08T17:00:48.514Z,100049.09
2022-12-08T17:03:17.977Z,100034.69
2022-12-08T17:05:46.264Z,100044.94
2022-12-08T17:08:14.636Z,100046.19
2022-12-08T17:10:43.315Z,100038.75
2022-12-08T17:13:17.141Z,100035.63
2022-12-08T17:15:45.454Z,100041.63
2022-12-08T17:18:13.824Z,100031.16
2022-12-08T17:20:42.118Z,100029.59
2022-12-08T17:23:10.371Z,99990.81
2022-12-08T17:25:38.703Z,100018.66
2022-12-08T17:28:06.911Z,100026.00
2022-12-08T17:30:36.666Z,100015.53
2022-12-08T17:33:05.254Z,100005.06
2022-12-08T17:35:33.516Z,100003.38
2022-12-08T17:38:01.763Z,99999.78
2022-12-08T17:40:31.205Z,100006.63
2022-12-08T17:42:59.415Z,99994.97
2022-12-08T17:45:27.704Z,100000.25
2022-12-08T17:47:57.447Z,99997.84
2022-12-08T17:50:25.812Z,100004.22
2022-12-08T17:52:54.065Z,99967.78
2022-12-08T17:55:22.493Z,99982.19
2022-12-08T17:57:50.747Z,99981.25
2022-12-08T18:00:19.307Z,99976.91
2022-12-08T18:02:47.689Z,99977.88
2022-12-08T18:05:17.484Z,99982.19
2022-12-08T18:07:45.742Z,99981.25
2022-12-08T18:10:14.483Z,99972.72
2022-12-08T18:12:43.455Z,99969.22
2022-12-08T18:15:16.600Z,99959.94
2022-12-08T18:17:45.007Z,99960.78
2022-12-08T18:20:14.416Z,99949.47
2022-12-08T18:22:44.360Z,99958.84
2022-12-08T18:25:13.786Z,99964.28
2022-12-08T18:27:43.315Z,99958.13
2022-12-08T18:30:15.656Z,99965.81
2022-12-08T18:32:44.326Z,99949.22
2022-12-08T18:35:13.502Z,99954.06
2022-12-08T18:37:43.639Z,99953.22
2022-12-08T18:40:13.000Z,99952.13
2022-12-08T18:42:41.331Z,99956.31
2022-12-08T18:45:10.400Z,99926.81
2022-12-08T18:47:40.770Z,99958.97
2022-12-08T18:50:11.146Z,99906.25
2022-12-08T18:52:39.577Z,99950.91
2022-12-08T18:55:10.371Z,99950.53
2022-12-08T18:57:39.646Z,99944.53
2022-12-08T19:00:09.697Z,99956.88
2022-12-08T19:02:38.772Z,99948.66
2022-12-08T19:05:07.574Z,99936.97
2022-12-08T19:07:36.366Z,99927.34
2022-12-08T19:10:05.497Z,99927.59
2022-12-08T19:12:36.584Z,99919.09
2022-12-08T19:15:05.614Z,99918.00
2022-12-08T19:17:34.547Z,99918.97
2022-12-08T19:20:03.930Z,99900.34
2022-12-08T19:22:32.676Z,99912.72
2022-12-08T19:25:01.951Z,99903.91
2022-12-08T19:27:30.282Z,99897.38
2022-12-08T19:29:59.932Z,99908.69
2022-12-08T19:32:30.007Z,99903.25
2022-12-08T19:34:58.404Z,99900.84
2022-12-08T19:37:26.679Z,99879.88
2022-12-08T19:40:12.127Z,99906.50
2022-12-08T19:42:57.440Z,99896.16
2022-12-08T19:45:27.827Z,99888.06
2022-12-08T19:47:56.150Z,99888.91
2022-12-08T19:50:40.588Z,99870.13
2022-12-08T19:53:11.783Z,99832.09
2022-12-08T19:55:41.027Z,99871.72
2022-12-08T19:58:10.187Z,99868.81
2022-12-08T20:00:41.643Z,99869.91
2022-12-08T20:03:11.871Z,99872.28
2022-12-08T20:05:41.958Z,99866.50
2022-12-08T20:08:10.692Z,99870.72
2022-12-08T20:10:41.122Z,99810.34
2022-12-08T20:13:29.019Z,99801.94
2022-12-08T20:15:59.121Z,99849.81
2022-12-08T20:18:28.777Z,99849.50
2022-12-08T20:20:57.257Z,99846.03
2022-12-08T20:23:25.462Z,99824.81
2022-12-08T20:25:53.805Z,99841.81
2022-12-08T20:28:22.651Z,99829.94
2022-12-08T20:30:51.747Z,99833.41
2022-12-08T20:33:23.224Z,99828.97
2022-12-08T20:35:59.750Z,99766.22
2022-12-08T20:38:28.181Z,99811.38
2022-12-08T20:40:56.627Z,99808.75
2022-12-08T20:43:24.951Z,99805.25
2022-12-08T20:45:53.321Z,99804.28
2022-12-08T20:48:23.275Z,99794.66
2022-12-08T20:50:51.864Z,99794.41
2022-12-08T20:53:20.360Z,99781.84
2022-12-08T20:55:48.885Z,99798.59
2022-12-08T20:58:17.278Z,99779.19
2022-12-08T21:00:45.931Z,99797.34
2022-12-08T21:03:15.563Z,99798.47
2022-12-08T21:05:50.709Z,99802.53
2022-12-08T21:08:20.248Z,99797.22
2022-12-08T21:10:55.401Z,99808.53
2022-12-08T21:13:23.862Z,99805.03
2022-12-08T21:15:52.966Z,99806.72
2022-12-08T21:18:21.768Z,99804.06
2022-12-08T21:20:52.263Z,99796.00
2022-12-08T21:23:20.791Z,99807.56
2022-12-08T21:25:49.418Z,99806.19
2022-12-08T21:28:17.817Z,99803.97
2022-12-08T21:30:46.248Z,99791.97
2022-12-08T21:33:14.900Z,99755.94
2022-12-08T21:35:43.443Z,99765.56
2022-12-08T21:38:13.411Z,99777.25
2022-12-08T21:40:41.866Z,99773.50
2022-12-08T21:43:10.163Z,99772.41
2022-12-08T21:45:38.509Z,99750.06
2022-12-08T21:48:11.480Z,99755.66
2022-12-08T21:50:40.388Z,99750.50
2022-12-08T21:53:08.968Z,99745.22
2022-12-08T21:55:39.795Z,99741.72
2022-12-08T21:58:08.163Z,99731.25
2022-12-08T22:00:36.677Z,99726.50
2022-12-08T22:03:05.541Z,99739.50
2022-12-08T22:05:34.191Z,99729.47
2022-12-08T22:08:02.614Z,99728.63
2022-12-08T22:10:31.228Z,99715.94
2022-12-08T22:13:01.135Z,99715.13
2022-12-08T22:15:29.963Z,99708.00
2022-12-08T22:17:58.616Z,99677.00
2022-12-08T22:20:27.066Z,99703.41
2022-12-08T22:22:55.438Z,99702.44
2022-12-08T22:25:24.111Z,99709.41
2022-12-08T22:27:52.422Z,99700.50
2022-12-08T22:30:22.251Z,99707.16
2022-12-08T22:32:50.609Z,99709.69
2022-12-08T22:35:18.925Z,99706.19
2022-12-08T22:37:49.738Z,99718.19
2022-12-08T22:40:18.316Z,99715.56
2022-12-08T22:42:46.591Z,99716.13
2022-12-08T22:45:14.878Z,99686.66
2022-12-08T22:47:44.550Z,99646.06
2022-12-08T22:50:13.131Z,99698.81
2022-12-08T22:52:41.449Z,99693.25
2022-12-08T22:55:10.512Z,99693.25
2022-12-08T22:57:38.791Z,99686.00
2022-12-08T23:00:11.945Z,99683.34
2022-12-08T23:02:40.579Z,99666.47
2022-12-08T23:05:11.734Z,99662.53
2022-12-08T23:07:40.954Z,99658.53
2022-12-08T23:10:11.259Z,99662.72
2022-12-08T23:12:40.364Z,99661.16
2022-12-08T23:15:10.088Z,99657.78
2022-12-08T23:17:38.583Z,99651.66
2022-12-08T23:20:08.343Z,99645.38
2022-12-08T23:22:38.825Z,99640.50
2022-12-08T23:25:08.566Z,99640.22
2022-12-08T23:27:38.654Z,99631.13
2022-12-08T23:30:08.496Z,99630.16
2022-12-08T23:32:37.194Z,99637.16
2022-12-08T23:35:06.667Z,99631.56
2022-12-08T23:37:35.616Z,99636.03
2022-12-08T23:40:07.358Z,99640.06
2022-12-08T23:42:36.453Z,99623.19
2022-12-08T23:45:05.501Z,99625.84
2022-12-08T23:47:33.925Z,99615.38
2022-12-08T23:50:02.609Z,99617.03
2022-12-08T23:52:31.226Z,99600.84
2022-12-08T23:54:59.627Z,99600.00
2022-12-08T23:57:29.617Z,99596.50
2022-12-08T23:59:57.935Z,99588.69
